sensor_id;sensor_type;location;lat;lon;timestamp;pressure;altitude;pressure_sealevel;temperature;humidity
74621;BME280;64861;47.546;19.254;2023-06-04T00:01:49;99501.53;;;21.39;51.84
74621;BME280;64861;47.546;19.254;2023-06-04T00:04:15;99503.19;;;21.40;52.28
74621;BME280;64861;47.546;19.254;2023-06-04T00:06:41;99501.53;;;21.39;51.98
74621;BME280;64861;47.546;19.254;2023-06-04T00:09:06;99505.03;;;21.40;51.75
74621;BME280;64861;47.546;19.254;2023-06-04T00:11:32;99503.50;;;21.37;51.81
74621;BME280;64861;47.546;19.254;2023-06-04T00:14:00;99505.50;;;21.35;51.98
74621;BME280;64861;47.546;19.254;2023-06-04T00:16:25;99505.63;;;21.33;52.13
74621;BME280;64861;47.546;19.254;2023-06-04T00:18:50;99507.31;;;21.34;52.01
74621;BME280;64861;47.546;19.254;2023-06-04T00:21:16;99509.97;;;21.34;51.66
74621;BME280;64861;47.546;19.254;2023-06-04T00:23:42;99510.66;;;21.37;51.95
74621;BME280;64861;47.546;19.254;2023-06-04T00:26:10;99502.47;;;21.30;51.79
74621;BME280;64861;47.546;19.254;2023-06-04T00:28:35;99518.94;;;21.33;52.23
74621;BME280;64861;47.546;19.254;2023-06-04T00:31:04;99526.75;;;21.35;51.92
74621;BME280;64861;47.546;19.254;2023-06-04T00:33:30;99518.78;;;21.35;51.68
74621;BME280;64861;47.546;19.254;2023-06-04T00:35:56;99513.16;;;21.38;51.80
74621;BME280;64861;47.546;19.254;2023-06-04T00:38:21;99511.50;;;21.37;51.44
74621;BME280;64861;47.546;19.254;2023-06-04T00:40:47;99506.19;;;21.37;51.52
74621;BME280;64861;47.546;19.254;2023-06-04T00:43:12;99507.00;;;21.38;51.51
74621;BME280;64861;47.546;19.254;2023-06-04T00:45:39;99511.78;;;21.34;51.49
74621;BME280;64861;47.546;19.254;2023-06-04T00:48:05;99507.00;;;21.38;51.50
74621;BME280;64861;47.546;19.254;2023-06-04T00:50:31;99502.84;;;21.35;51.90
74621;BME280;64861;47.546;19.254;2023-06-04T00:52:58;99508.97;;;21.35;51.60
74621;BME280;64861;47.546;19.254;2023-06-04T00:55:24;99494.72;;;21.37;51.58
74621;BME280;64861;47.546;19.254;2023-06-04T00:57:50;99492.19;;;21.35;51.39
74621;BME280;64861;47.546;19.254;2023-06-04T01:00:16;99488.19;;;21.31;52.00
74621;BME280;64861;47.546;19.254;2023-06-04T01:02:43;99482.72;;;21.32;52.09
74621;BME280;64861;47.546;19.254;2023-06-04T01:05:43;99482.88;;;21.31;51.86
74621;BME280;64861;47.546;19.254;2023-06-04T01:08:13;99490.16;;;21.29;51.84
74621;BME280;64861;47.546;19.254;2023-06-04T01:10:53;99491.16;;;21.28;51.98
74621;BME280;64861;47.546;19.254;2023-06-04T01:13:20;99492.16;;;21.27;52.21
74621;BME280;64861;47.546;19.254;2023-06-04T01:15:45;99495.66;;;21.27;52.18
74621;BME280;64861;47.546;19.254;2023-06-04T01:18:18;99503.31;;;21.30;51.91
74621;BME280;64861;47.546;19.254;2023-06-04T01:20:59;99506.97;;;21.29;52.08
74621;BME280;64861;47.546;19.254;2023-06-04T01:23:31;99498.13;;;21.29;52.18
74621;BME280;64861;47.546;19.254;2023-06-04T01:26:03;99502.63;;;21.28;52.07
74621;BME280;64861;47.546;19.254;2023-06-04T01:28:30;99501.97;;;21.26;52.08
74621;BME280;64861;47.546;19.254;2023-06-04T01:30:56;99509.94;;;21.26;52.04
74621;BME280;64861;47.546;19.254;2023-06-04T01:33:22;99514.25;;;21.27;52.21
74621;BME280;64861;47.546;19.254;2023-06-04T01:35:49;99509.75;;;21.28;51.44
74621;BME280;64861;47.546;19.254;2023-06-04T01:38:14;99510.78;;;21.27;52.22
74621;BME280;64861;47.546;19.254;2023-06-04T01:40:41;99508.75;;;21.29;52.08
74621;BME280;64861;47.546;19.254;2023-06-04T01:43:06;99507.28;;;21.26;51.95
74621;BME280;64861;47.546;19.254;2023-06-04T01:45:32;99505.44;;;21.27;52.22
74621;BME280;64861;47.546;19.254;2023-06-04T01:48:01;99504.13;;;21.23;51.85
74621;BME280;64861;47.546;19.254;2023-06-04T01:50:26;99499.13;;;21.28;52.16
74621;BME280;64861;47.546;19.254;2023-06-04T01:52:54;99501.47;;;21.23;52.50
74621;BME280;64861;47.546;19.254;2023-06-04T01:55:20;99507.59;;;21.23;52.41
74621;BME280;64861;47.546;19.254;2023-06-04T01:57:47;99518.22;;;21.23;52.41
74621;BME280;64861;47.546;19.254;2023-06-04T02:00:13;99513.09;;;21.30;52.08
74621;BME280;64861;47.546;19.254;2023-06-04T02:02:45;99511.59;;;21.27;52.06
74621;BME280;64861;47.546;19.254;2023-06-04T02:05:11;99517.41;;;21.31;52.14
74621;BME280;64861;47.546;19.254;2023-06-04T02:07:38;99518.75;;;21.27;52.10
74621;BME280;64861;47.546;19.254;2023-06-04T02:10:08;99509.25;;;21.24;52.54
74621;BME280;64861;47.546;19.254;2023-06-04T02:12:39;99508.56;;;21.22;52.67
74621;BME280;64861;47.546;19.254;2023-06-04T02:15:05;99514.75;;;21.23;52.16
74621;BME280;64861;47.546;19.254;2023-06-04T02:17:31;99513.06;;;21.22;52.60
74621;BME280;64861;47.546;19.254;2023-06-04T02:20:03;99510.91;;;21.17;52.38
74621;BME280;64861;47.546;19.254;2023-06-04T02:22:29;99507.41;;;21.17;52.36
74621;BME280;64861;47.546;19.254;2023-06-04T02:24:55;99506.41;;;21.18;52.09
74621;BME280;64861;47.546;19.254;2023-06-04T02:27:20;99509.38;;;21.15;52.58
74621;BME280;64861;47.546;19.254;2023-06-04T02:29:46;99507.41;;;21.17;52.33
74621;BME280;64861;47.546;19.254;2023-06-04T02:32:11;99505.91;;;21.14;52.36
74621;BME280;64861;47.546;19.254;2023-06-04T02:34:37;99506.72;;;21.15;52.77
74621;BME280;64861;47.546;19.254;2023-06-04T02:37:03;99507.56;;;21.15;52.09
74621;BME280;64861;47.546;19.254;2023-06-04T02:39:28;99504.38;;;21.11;52.37
74621;BME280;64861;47.546;19.254;2023-06-04T02:41:54;99514.69;;;21.15;52.68
74621;BME280;64861;47.546;19.254;2023-06-04T02:44:19;99513.38;;;21.10;52.88
74621;BME280;64861;47.546;19.254;2023-06-04T02:46:45;99521.84;;;21.14;52.63
74621;BME280;64861;47.546;19.254;2023-06-04T02:49:11;99522.16;;;21.11;52.29
74621;BME280;64861;47.546;19.254;2023-06-04T02:51:43;99531.13;;;21.10;52.67
74621;BME280;64861;47.546;19.254;2023-06-04T02:54:09;99533.47;;;21.13;52.50
74621;BME280;64861;47.546;19.254;2023-06-04T02:56:36;99534.31;;;21.14;52.23
74621;BME280;64861;47.546;19.254;2023-06-04T02:59:02;99532.78;;;21.11;52.73
74621;BME280;64861;47.546;19.254;2023-06-04T03:01:28;99530.13;;;21.11;52.30
74621;BME280;64861;47.546;19.254;2023-06-04T03:03:54;99536.28;;;21.11;52.64
74621;BME280;64861;47.546;19.254;2023-06-04T03:06:21;99531.97;;;21.10;52.34
74621;BME280;64861;47.546;19.254;2023-06-04T03:08:48;99532.97;;;21.09;52.49
74621;BME280;64861;47.546;19.254;2023-06-04T03:11:14;99534.44;;;21.12;52.54
74621;BME280;64861;47.546;19.254;2023-06-04T03:13:41;99536.13;;;21.13;52.23
74621;BME280;64861;47.546;19.254;2023-06-04T03:16:06;99533.94;;;21.08;52.38
74621;BME280;64861;47.546;19.254;2023-06-04T03:18:40;99530.97;;;21.11;52.45
74621;BME280;64861;47.546;19.254;2023-06-04T03:21:06;99530.00;;;21.13;52.29
74621;BME280;64861;47.546;19.254;2023-06-04T03:23:33;99520.19;;;21.13;52.17
74621;BME280;64861;47.546;19.254;2023-06-04T03:26:03;99517.22;;;21.16;52.33
74621;BME280;64861;47.546;19.254;2023-06-04T03:28:29;99516.53;;;21.14;52.37
74621;BME280;64861;47.546;19.254;2023-06-04T03:30:54;99525.19;;;21.16;52.03
74621;BME280;64861;47.546;19.254;2023-06-04T03:33:20;99519.00;;;21.16;52.21
74621;BME280;64861;47.546;19.254;2023-06-04T03:35:45;99528.69;;;21.17;52.07
74621;BME280;64861;47.546;19.254;2023-06-04T03:38:13;99529.66;;;21.16;52.25
74621;BME280;64861;47.546;19.254;2023-06-04T03:40:39;99531.34;;;21.17;52.03
74621;BME280;64861;47.546;19.254;2023-06-04T03:43:04;99529.50;;;21.17;52.05
74621;BME280;64861;47.546;19.254;2023-06-04T03:45:30;99539.97;;;21.19;51.94
74621;BME280;64861;47.546;19.254;2023-06-04T03:47:56;99532.66;;;21.21;51.92
74621;BME280;64861;47.546;19.254;2023-06-04T03:50:21;99534.66;;;21.19;51.94
74621;BME280;64861;47.546;19.254;2023-06-04T03:52:50;99536.00;;;21.23;51.64
74621;BME280;64861;47.546;19.254;2023-06-04T03:55:15;99531.84;;;21.20;51.87
74621;BME280;64861;47.546;19.254;2023-06-04T03:57:41;99536.34;;;21.20;51.98
74621;BME280;64861;47.546;19.254;2023-06-04T04:00:08;99534.31;;;21.22;51.68
74621;BME280;64861;47.546;19.254;2023-06-04T04:02:37;99534.31;;;21.22;51.75
74621;BME280;64861;47.546;19.254;2023-06-04T04:05:03;99533.03;;;21.26;51.71
74621;BME280;64861;47.546;19.254;2023-06-04T04:07:28;99537.66;;;21.24;51.60
74621;BME280;64861;47.546;19.254;2023-06-04T04:09:54;99544.63;;;21.25;51.95
74621;BME280;64861;47.546;19.254;2023-06-04T04:12:19;99545.31;;;21.27;51.57
74621;BME280;64861;47.546;19.254;2023-06-04T04:14:45;99552.16;;;21.29;51.45
74621;BME280;64861;47.546;19.254;2023-06-04T04:17:12;99546.53;;;21.32;51.72
74621;BME280;64861;47.546;19.254;2023-06-04T04:19:38;99540.88;;;21.35;51.55
74621;BME280;64861;47.546;19.254;2023-06-04T04:22:03;99554.03;;;21.37;51.34
74621;BME280;64861;47.546;19.254;2023-06-04T04:24:29;99543.53;;;21.35;51.41
74621;BME280;64861;47.546;19.254;2023-06-04T04:26:54;99556.00;;;21.35;51.65
74621;BME280;64861;47.546;19.254;2023-06-04T04:29:23;99563.34;;;21.41;51.41
74621;BME280;64861;47.546;19.254;2023-06-04T04:31:53;99559.53;;;21.44;51.20
74621;BME280;64861;47.546;19.254;2023-06-04T04:34:21;99555.41;;;21.49;50.99
74621;BME280;64861;47.546;19.254;2023-06-04T04:36:48;99549.59;;;21.54;51.14
74621;BME280;64861;47.546;19.254;2023-06-04T04:39:22;99556.22;;;21.50;51.12
74621;BME280;64861;47.546;19.254;2023-06-04T04:41:49;99563.75;;;21.71;50.32
74621;BME280;64861;47.546;19.254;2023-06-04T04:44:15;99571.09;;;21.85;50.30
74621;BME280;64861;47.546;19.254;2023-06-04T04:46:40;99559.78;;;21.75;50.40
74621;BME280;64861;47.546;19.254;2023-06-04T04:49:06;99566.63;;;21.86;50.24
74621;BME280;64861;47.546;19.254;2023-06-04T04:51:31;99571.63;;;21.97;49.88
74621;BME280;64861;47.546;19.254;2023-06-04T04:53:58;99569.13;;;22.03;50.27
74621;BME280;64861;47.546;19.254;2023-06-04T04:56:25;99567.31;;;22.12;49.79
74621;BME280;64861;47.546;19.254;2023-06-04T04:58:52;99573.00;;;22.17;49.77
74621;BME280;64861;47.546;19.254;2023-06-04T05:01:17;99580.34;;;22.23;49.53
74621;BME280;64861;47.546;19.254;2023-06-04T05:03:43;99582.00;;;22.33;49.34
74621;BME280;64861;47.546;19.254;2023-06-04T05:06:08;99589.16;;;22.40;49.10
74621;BME280;64861;47.546;19.254;2023-06-04T05:08:33;99581.34;;;22.39;49.23
74621;BME280;64861;47.546;19.254;2023-06-04T05:10:59;99584.66;;;22.41;49.30
74621;BME280;64861;47.546;19.254;2023-06-04T05:13:26;99587.50;;;22.39;49.21
74621;BME280;64861;47.546;19.254;2023-06-04T05:15:52;99589.81;;;22.50;49.09
74621;BME280;64861;47.546;19.254;2023-06-04T05:18:18;99588.47;;;22.55;49.05
74621;BME280;64861;47.546;19.254;2023-06-04T05:20:47;99590.97;;;22.64;48.85
74621;BME280;64861;47.546;19.254;2023-06-04T05:23:13;99588.63;;;22.69;48.82
74621;BME280;64861;47.546;19.254;2023-06-04T05:25:39;99586.78;;;22.70;48.86
74621;BME280;64861;47.546;19.254;2023-06-04T05:28:06;99584.16;;;22.54;49.23
74621;BME280;64861;47.546;19.254;2023-06-04T05:30:32;99586.34;;;22.42;49.53
74621;BME280;64861;47.546;19.254;2023-06-04T05:32:59;99593.16;;;22.36;49.82
74621;BME280;64861;47.546;19.254;2023-06-04T05:35:25;99591.31;;;22.28;49.95
74621;BME280;64861;47.546;19.254;2023-06-04T05:37:51;99595.97;;;22.26;50.42
74621;BME280;64861;47.546;19.254;2023-06-04T05:40:20;99602.66;;;22.39;49.95
74621;BME280;64861;47.546;19.254;2023-06-04T05:42:47;99600.66;;;22.49;49.79
74621;BME280;64861;47.546;19.254;2023-06-04T05:45:12;99595.31;;;22.65;49.41
74621;BME280;64861;47.546;19.254;2023-06-04T05:47:38;99602.97;;;22.60;49.40
74621;BME280;64861;47.546;19.254;2023-06-04T05:50:04;99605.31;;;22.39;45.48
74621;BME280;64861;47.546;19.254;2023-06-04T05:52:31;99606.63;;;22.26;43.21
74621;BME280;64861;47.546;19.254;2023-06-04T05:54:56;99594.13;;;22.27;41.07
74621;BME280;64861;47.546;19.254;2023-06-04T05:57:21;99600.13;;;22.37;41.18
74621;BME280;64861;47.546;19.254;2023-06-04T05:59:47;99605.81;;;22.42;43.09
74621;BME280;64861;47.546;19.254;2023-06-04T06:02:12;99604.63;;;22.53;45.37
74621;BME280;64861;47.546;19.254;2023-06-04T06:04:38;99611.78;;;22.69;46.63
74621;BME280;64861;47.546;19.254;2023-06-04T06:07:03;99605.44;;;22.70;47.21
74621;BME280;64861;47.546;19.254;2023-06-04T06:09:29;99605.78;;;22.75;47.33
74621;BME280;64861;47.546;19.254;2023-06-04T06:11:54;99596.75;;;22.92;47.19
74621;BME280;64861;47.546;19.254;2023-06-04T06:14:20;99605.38;;;23.11;46.90
74621;BME280;64861;47.546;19.254;2023-06-04T06:16:45;99604.88;;;23.15;46.96
74621;BME280;64861;47.546;19.254;2023-06-04T06:19:12;99600.03;;;23.19;46.92
74621;BME280;64861;47.546;19.254;2023-06-04T06:21:38;99598.00;;;23.21;47.03
74621;BME280;64861;47.546;19.254;2023-06-04T06:24:04;99598.22;;;23.19;47.16
74621;BME280;64861;47.546;19.254;2023-06-04T06:26:30;99601.00;;;23.26;47.24
74621;BME280;64861;47.546;19.254;2023-06-04T06:28:56;99601.47;;;23.38;46.98
74621;BME280;64861;47.546;19.254;2023-06-04T06:31:21;99612.59;;;23.50;46.78
74621;BME280;64861;47.546;19.254;2023-06-04T06:33:47;99616.44;;;23.47;46.87
74621;BME280;64861;47.546;19.254;2023-06-04T06:36:13;99614.59;;;23.48;46.93
74621;BME280;64861;47.546;19.254;2023-06-04T06:38:38;99608.34;;;23.24;47.42
74621;BME280;64861;47.546;19.254;2023-06-04T06:41:04;99615.22;;;23.18;47.67
74621;BME280;64861;47.546;19.254;2023-06-04T06:43:30;99613.13;;;23.37;47.37
74621;BME280;64861;47.546;19.254;2023-06-04T06:45:57;99610.94;;;23.40;47.27
74621;BME280;64861;47.546;19.254;2023-06-04T06:48:22;99617.97;;;23.41;47.25
74621;BME280;64861;47.546;19.254;2023-06-04T06:50:48;99614.75;;;23.54;47.07
74621;BME280;64861;47.546;19.254;2023-06-04T06:53:13;99614.38;;;23.57;46.90
74621;BME280;64861;47.546;19.254;2023-06-04T06:55:39;99615.59;;;23.55;47.03
74621;BME280;64861;47.546;19.254;2023-06-04T06:58:04;99614.09;;;23.52;47.14
74621;BME280;64861;47.546;19.254;2023-06-04T07:00:30;99620.78;;;23.48;47.28
74621;BME280;64861;47.546;19.254;2023-06-04T07:02:55;99626.75;;;23.50;47.16
74621;BME280;64861;47.546;19.254;2023-06-04T07:05:21;99626.75;;;23.50;47.18
74621;BME280;64861;47.546;19.254;2023-06-04T07:07:47;99629.13;;;23.45;47.39
74621;BME280;64861;47.546;19.254;2023-06-04T07:10:13;99632.34;;;23.32;47.77
74621;BME280;64861;47.546;19.254;2023-06-04T07:12:39;99621.88;;;23.23;47.90
74621;BME280;64861;47.546;19.254;2023-06-04T07:15:06;99634.38;;;23.22;48.07
74621;BME280;64861;47.546;19.254;2023-06-04T07:17:33;99637.38;;;23.19;48.12
74621;BME280;64861;47.546;19.254;2023-06-04T07:19:59;99636.06;;;23.15;48.04
74621;BME280;64861;47.546;19.254;2023-06-04T07:22:25;99637.56;;;23.09;48.33
74621;BME280;64861;47.546;19.254;2023-06-04T07:24:51;99638.38;;;23.10;48.38
74621;BME280;64861;47.546;19.254;2023-06-04T07:27:16;99642.72;;;23.11;48.43
74621;BME280;64861;47.546;19.254;2023-06-04T07:29:44;99636.41;;;23.12;48.48
74621;BME280;64861;47.546;19.254;2023-06-04T07:32:10;99645.03;;;23.14;48.22
74621;BME280;64861;47.546;19.254;2023-06-04T07:34:38;99642.84;;;23.17;48.32
74621;BME280;64861;47.546;19.254;2023-06-04T07:37:04;99638.19;;;23.19;48.29
74621;BME280;64861;47.546;19.254;2023-06-04T07:39:30;99639.84;;;23.20;48.25
74621;BME280;64861;47.546;19.254;2023-06-04T07:41:55;99632.19;;;23.26;48.14
74621;BME280;64861;47.546;19.254;2023-06-04T07:44:21;99646.97;;;23.36;47.91
74621;BME280;64861;47.546;19.254;2023-06-04T07:46:46;99641.31;;;23.39;47.86
74621;BME280;64861;47.546;19.254;2023-06-04T07:49:12;99641.63;;;23.44;47.88
74621;BME280;64861;47.546;19.254;2023-06-04T07:51:37;99636.13;;;23.46;47.71
74621;BME280;64861;47.546;19.254;2023-06-04T07:54:03;99643.28;;;23.45;47.85
74621;BME280;64861;47.546;19.254;2023-06-04T07:56:28;99647.28;;;23.50;47.67
74621;BME280;64861;47.546;19.254;2023-06-04T07:58:54;99653.28;;;23.43;47.85
74621;BME280;64861;47.546;19.254;2023-06-04T08:01:21;99650.41;;;23.53;47.82
74621;BME280;64861;47.546;19.254;2023-06-04T08:03:47;99656.91;;;23.59;47.57
74621;BME280;64861;47.546;19.254;2023-06-04T08:06:13;99656.22;;;23.65;47.57
74621;BME280;64861;47.546;19.254;2023-06-04T08:08:45;99658.22;;;23.71;47.54
74621;BME280;64861;47.546;19.254;2023-06-04T08:11:14;99661.34;;;23.83;47.41
74621;BME280;64861;47.546;19.254;2023-06-04T08:13:39;99661.50;;;24.12;46.80
74621;BME280;64861;47.546;19.254;2023-06-04T08:16:06;99653.72;;;24.26;46.56
74621;BME280;64861;47.546;19.254;2023-06-04T08:18:32;99652.94;;;24.17;46.86
74621;BME280;64861;47.546;19.254;2023-06-04T08:20:58;99661.50;;;24.12;47.06
74621;BME280;64861;47.546;19.254;2023-06-04T08:23:23;99657.19;;;24.34;46.58
74621;BME280;64861;47.546;19.254;2023-06-04T08:25:48;99660.75;;;24.50;46.22
74621;BME280;64861;47.546;19.254;2023-06-04T08:28:14;99658.31;;;24.40;46.40
74621;BME280;64861;47.546;19.254;2023-06-04T08:30:42;99659.06;;;24.26;47.58
74621;BME280;64861;47.546;19.254;2023-06-04T08:33:08;99661.16;;;24.15;47.56
74621;BME280;64861;47.546;19.254;2023-06-04T08:35:33;99661.59;;;23.96;47.88
74621;BME280;64861;47.546;19.254;2023-06-04T08:37:59;99667.13;;;23.95;48.33
74621;BME280;64861;47.546;19.254;2023-06-04T08:40:24;99666.03;;;24.04;48.13
74621;BME280;64861;47.546;19.254;2023-06-04T08:42:51;99661.34;;;24.14;47.80
74621;BME280;64861;47.546;19.254;2023-06-04T08:45:20;99659.31;;;24.39;47.40
74621;BME280;64861;47.546;19.254;2023-06-04T08:47:49;99659.19;;;24.41;47.26
74621;BME280;64861;47.546;19.254;2023-06-04T08:50:21;99658.50;;;24.38;47.26
74621;BME280;64861;47.546;19.254;2023-06-04T08:52:51;99653.19;;;24.30;47.29
74621;BME280;64861;47.546;19.254;2023-06-04T08:55:17;99660.56;;;24.28;47.39
74621;BME280;64861;47.546;19.254;2023-06-04T08:57:43;99649.72;;;24.53;46.83
74621;BME280;64861;47.546;19.254;2023-06-04T09:00:09;99655.50;;;24.79;46.47
74621;BME280;64861;47.546;19.254;2023-06-04T09:02:38;99649.59;;;26.17;43.29
74621;BME280;64861;47.546;19.254;2023-06-04T09:05:05;99652.34;;;25.88;44.16
74621;BME280;64861;47.546;19.254;2023-06-04T09:07:35;99657.25;;;25.54;44.65
74621;BME280;64861;47.546;19.254;2023-06-04T09:10:01;99662.66;;;25.02;45.91
74621;BME280;64861;47.546;19.254;2023-06-04T09:12:28;99653.34;;;24.60;46.70
74621;BME280;64861;47.546;19.254;2023-06-04T09:14:54;99652.47;;;24.36;47.35
74621;BME280;64861;47.546;19.254;2023-06-04T09:17:24;99649.75;;;24.22;47.82
74621;BME280;64861;47.546;19.254;2023-06-04T09:19:50;99645.72;;;24.26;47.56
74621;BME280;64861;47.546;19.254;2023-06-04T09:22:16;99645.19;;;24.07;48.15
74621;BME280;64861;47.546;19.254;2023-06-04T09:24:46;99653.38;;;24.06;48.46
74621;BME280;64861;47.546;19.254;2023-06-04T09:27:14;99650.28;;;23.94;48.66
74621;BME280;64861;47.546;19.254;2023-06-04T09:29:50;99652.81;;;23.87;48.74
74621;BME280;64861;47.546;19.254;2023-06-04T09:32:24;99652.16;;;23.77;48.86
74621;BME280;64861;47.546;19.254;2023-06-04T09:34:49;99659.03;;;23.63;49.25
74621;BME280;64861;47.546;19.254;2023-06-04T09:37:15;99646.78;;;23.54;49.81
74621;BME280;64861;47.546;19.254;2023-06-04T09:39:43;99648.63;;;23.45;49.86
74621;BME280;64861;47.546;19.254;2023-06-04T09:42:09;99650.47;;;23.37;49.97
74621;BME280;64861;47.546;19.254;2023-06-04T09:44:43;99655.84;;;23.29;49.99
74621;BME280;64861;47.546;19.254;2023-06-04T09:47:11;99653.53;;;23.26;50.03
74621;BME280;64861;47.546;19.254;2023-06-04T09:49:55;99661.19;;;23.29;50.10
74621;BME280;64861;47.546;19.254;2023-06-04T09:52:20;99652.84;;;23.32;49.89
74621;BME280;64861;47.546;19.254;2023-06-04T09:54:47;99659.34;;;23.29;49.91
74621;BME280;64861;47.546;19.254;2023-06-04T09:57:17;99659.69;;;23.26;50.15
74621;BME280;64861;47.546;19.254;2023-06-04T09:59:45;99653.53;;;23.26;50.18
74621;BME280;64861;47.546;19.254;2023-06-04T10:02:12;99649.19;;;23.25;50.15
74621;BME280;64861;47.546;19.254;2023-06-04T10:04:42;99649.53;;;23.21;50.25
74621;BME280;64861;47.546;19.254;2023-06-04T10:07:11;99662.00;;;23.21;50.16
74621;BME280;64861;47.546;19.254;2023-06-04T10:09:39;99658.53;;;23.20;50.09
74621;BME280;64861;47.546;19.254;2023-06-04T10:12:13;99656.69;;;23.21;49.90
74621;BME280;64861;47.546;19.254;2023-06-04T10:14:49;99660.03;;;23.23;49.90
74621;BME280;64861;47.546;19.254;2023-06-04T10:17:21;99664.69;;;23.21;49.87
74621;BME280;64861;47.546;19.254;2023-06-04T10:19:49;99670.19;;;23.19;49.84
74621;BME280;64861;47.546;19.254;2023-06-04T10:22:17;99659.03;;;23.16;49.82
74621;BME280;64861;47.546;19.254;2023-06-04T10:24:44;99661.88;;;23.14;49.95
74621;BME280;64861;47.546;19.254;2023-06-04T10:27:11;99668.53;;;23.10;50.02
74621;BME280;64861;47.546;19.254;2023-06-04T10:29:38;99660.53;;;23.10;50.26
74621;BME280;64861;47.546;19.254;2023-06-04T10:32:04;99659.03;;;23.08;50.41
74621;BME280;64861;47.546;19.254;2023-06-04T10:34:30;99656.56;;;23.06;50.41
74621;BME280;64861;47.546;19.254;2023-06-04T10:36:56;99656.38;;;23.08;50.50
74621;BME280;64861;47.546;19.254;2023-06-04T10:39:28;99648.03;;;23.11;50.52
74621;BME280;64861;47.546;19.254;2023-06-04T10:42:04;99656.38;;;23.16;50.48
74621;BME280;64861;47.546;19.254;2023-06-04T10:44:31;99657.38;;;23.15;50.47
74621;BME280;64861;47.546;19.254;2023-06-04T10:46:58;99654.88;;;23.13;50.47
74621;BME280;64861;47.546;19.254;2023-06-04T10:49:30;99654.03;;;23.13;50.53
74621;BME280;64861;47.546;19.254;2023-06-04T10:52:09;99652.41;;;23.12;50.56
74621;BME280;64861;47.546;19.254;2023-06-04T10:54:35;99655.69;;;23.14;50.42
74621;BME280;64861;47.546;19.254;2023-06-04T10:57:10;99656.38;;;23.16;50.39
74621;BME280;64861;47.546;19.254;2023-06-04T10:59:36;99651.88;;;23.16;50.44
74621;BME280;64861;47.546;19.254;2023-06-04T11:02:06;99659.88;;;23.16;50.43
74621;BME280;64861;47.546;19.254;2023-06-04T11:04:32;99654.38;;;23.18;50.22
74621;BME280;64861;47.546;19.254;2023-06-04T11:07:05;99658.53;;;23.20;50.29
74621;BME280;64861;47.546;19.254;2023-06-04T11:09:35;99652.84;;;23.24;50.29
74621;BME280;64861;47.546;19.254;2023-06-04T11:12:02;99660.50;;;23.27;50.15
74621;BME280;64861;47.546;19.254;2023-06-04T11:14:27;99658.19;;;23.24;50.21
74621;BME280;64861;47.546;19.254;2023-06-04T11:16:53;99663.69;;;23.22;50.53
74621;BME280;64861;47.546;19.254;2023-06-04T11:19:18;99657.06;;;23.18;50.25
74621;BME280;64861;47.546;19.254;2023-06-04T11:21:44;99658.69;;;23.19;48.74
74621;BME280;64861;47.546;19.254;2023-06-04T11:24:12;99651.34;;;23.29;49.22
74621;BME280;64861;47.546;19.254;2023-06-04T11:26:38;99661.97;;;23.37;48.59
74621;BME280;64861;47.546;19.254;2023-06-04T11:29:08;99650.13;;;23.40;48.89
74621;BME280;64861;47.546;19.254;2023-06-04T11:31:44;99651.31;;;23.37;49.15
74621;BME280;64861;47.546;19.254;2023-06-04T11:34:10;99645.81;;;23.39;49.36
74621;BME280;64861;47.546;19.254;2023-06-04T11:36:39;99654.66;;;23.39;49.36
74621;BME280;64861;47.546;19.254;2023-06-04T11:39:05;99658.47;;;23.45;49.35
74621;BME280;64861;47.546;19.254;2023-06-04T11:41:35;99656.59;;;23.54;49.30
74621;BME280;64861;47.546;19.254;2023-06-04T11:44:05;99657.78;;;23.51;49.24
74621;BME280;64861;47.546;19.254;2023-06-04T11:46:35;99657.63;;;23.44;49.46
74621;BME280;64861;47.546;19.254;2023-06-04T11:49:02;99656.97;;;23.34;49.65
74621;BME280;64861;47.546;19.254;2023-06-04T11:51:28;99658.19;;;23.24;49.79
74621;BME280;64861;47.546;19.254;2023-06-04T11:53:55;99660.34;;;23.20;50.19
74621;BME280;64861;47.546;19.254;2023-06-04T11:56:24;99658.84;;;23.17;50.24
74621;BME280;64861;47.546;19.254;2023-06-04T11:58:51;99652.22;;;23.13;50.47
74621;BME280;64861;47.546;19.254;2023-06-04T12:01:17;99660.06;;;23.15;50.44
74621;BME280;64861;47.546;19.254;2023-06-04T12:03:43;99658.38;;;23.14;50.45
74621;BME280;64861;47.546;19.254;2023-06-04T12:06:10;99655.88;;;23.12;50.67
74621;BME280;64861;47.546;19.254;2023-06-04T12:08:56;99661.72;;;23.08;50.66
74621;BME280;64861;47.546;19.254;2023-06-04T12:11:25;99656.06;;;23.03;50.84
74621;BME280;64861;47.546;19.254;2023-06-04T12:13:59;99657.91;;;23.02;50.78
74621;BME280;64861;47.546;19.254;2023-06-04T12:16:26;99664.22;;;23.01;50.84
74621;BME280;64861;47.546;19.254;2023-06-04T12:18:52;99659.25;;;22.98;50.94
74621;BME280;64861;47.546;19.254;2023-06-04T12:21:20;99659.59;;;22.95;51.05
74621;BME280;64861;47.546;19.254;2023-06-04T12:23:48;99655.38;;;22.92;50.94
74621;BME280;64861;47.546;19.254;2023-06-04T12:26:21;99658.22;;;22.91;51.20
74621;BME280;64861;47.546;19.254;2023-06-04T12:29:01;99658.91;;;22.93;51.20
74621;BME280;64861;47.546;19.254;2023-06-04T12:31:27;99657.75;;;22.95;51.04
74621;BME280;64861;47.546;19.254;2023-06-04T12:33:58;99655.91;;;22.96;51.09
74621;BME280;64861;47.546;19.254;2023-06-04T12:36:24;99656.25;;;22.93;51.24
74621;BME280;64861;47.546;19.254;2023-06-04T12:38:50;99658.38;;;22.89;51.32
74621;BME280;64861;47.546;19.254;2023-06-04T12:41:15;99650.53;;;22.88;51.41
74621;BME280;64861;47.546;19.254;2023-06-04T12:43:41;99658.72;;;22.86;51.41
74621;BME280;64861;47.546;19.254;2023-06-04T12:46:07;99656.25;;;22.85;51.46
74621;BME280;64861;47.546;19.254;2023-06-04T12:48:33;99660.06;;;22.82;51.64
74621;BME280;64861;47.546;19.254;2023-06-04T12:50:58;99656.72;;;22.80;51.58